sensor_id;sensor_type;location;lat;lon;timestamp;pressure;altitude;pressure_sealevel;temperature
68588;BMP180;55560;52.174;20.996;2022-11-15T00:00:23;100940.00;;;7.50
68588;BMP180;55560;52.174;20.996;2022-11-15T00:03:09;100941.40;;;7.50
68588;BMP180;55560;52.174;20.996;2022-11-15T00:06:01;100932.40;;;7.50
68588;BMP180;55560;52.174;20.996;2022-11-15T00:08:47;100928.40;;;7.60
68588;BMP180;55560;52.174;20.996;2022-11-15T00:11:34;100928.20;;;7.60
68588;BMP180;55560;52.174;20.996;2022-11-15T00:14:20;100925.20;;;7.60
68588;BMP180;55560;52.174;20.996;2022-11-15T00:17:07;100921.60;;;7.60
68588;BMP180;55560;52.174;20.996;2022-11-15T00:19:53;100916.40;;;7.60
68588;BMP180;55560;52.174;20.996;2022-11-15T00:22:39;100916.40;;;7.60
68588;BMP180;55560;52.174;20.996;2022-11-15T00:25:26;100907.00;;;7.60
68588;BMP180;55560;52.174;20.996;2022-11-15T00:28:13;100902.20;;;7.50
68588;BMP180;55560;52.174;20.996;2022-11-15T00:31:01;100900.40;;;7.52
68588;BMP180;55560;52.174;20.996;2022-11-15T00:33:48;100899.20;;;7.60
68588;BMP180;55560;52.174;20.996;2022-11-15T00:36:34;100898.20;;;7.60
68588;BMP180;55560;52.174;20.996;2022-11-15T00:39:21;100886.60;;;7.52
68588;BMP180;55560;52.174;20.996;2022-11-15T00:42:07;100883.00;;;7.50
68588;BMP180;55560;52.174;20.996;2022-11-15T00:44:54;100885.60;;;7.50
68588;BMP180;55560;52.174;20.996;2022-11-15T00:47:44;100882.20;;;7.50
68588;BMP180;55560;52.174;20.996;2022-11-15T00:50:30;100875.80;;;7.50
68588;BMP180;55560;52.174;20.996;2022-11-15T00:53:17;100871.60;;;7.54
68588;BMP180;55560;52.174;20.996;2022-11-15T00:56:03;100865.60;;;7.50
68588;BMP180;55560;52.174;20.996;2022-11-15T00:58:50;100862.40;;;7.50
68588;BMP180;55560;52.174;20.996;2022-11-15T01:01:36;100857.00;;;7.50
68588;BMP180;55560;52.174;20.996;2022-11-15T01:04:22;100854.60;;;7.50
68588;BMP180;55560;52.174;20.996;2022-11-15T01:07:09;100849.60;;;7.60
68588;BMP180;55560;52.174;20.996;2022-11-15T01:09:55;100848.20;;;7.60
68588;BMP180;55560;52.174;20.996;2022-11-15T01:12:41;100841.00;;;7.54
68588;BMP180;55560;52.174;20.996;2022-11-15T01:15:28;100830.20;;;7.58
68588;BMP180;55560;52.174;20.996;2022-11-15T01:18:14;100823.80;;;7.54
68588;BMP180;55560;52.174;20.996;2022-11-15T01:21:06;100821.40;;;7.60
68588;BMP180;55560;52.174;20.996;2022-11-15T01:23:54;100820.80;;;7.60
68588;BMP180;55560;52.174;20.996;2022-11-15T01:26:41;100820.20;;;7.50
68588;BMP180;55560;52.174;20.996;2022-11-15T01:29:28;100813.80;;;7.56
68588;BMP180;55560;52.174;20.996;2022-11-15T01:32:14;100805.60;;;7.50
68588;BMP180;55560;52.174;20.996;2022-11-15T01:35:01;100797.40;;;7.50
68588;BMP180;55560;52.174;20.996;2022-11-15T01:37:47;100801.80;;;7.50
68588;BMP180;55560;52.174;20.996;2022-11-15T01:40:33;100809.80;;;7.50
68588;BMP180;55560;52.174;20.996;2022-11-15T01:43:25;100812.20;;;7.50
68588;BMP180;55560;52.174;20.996;2022-11-15T01:49:14;100800.80;;;7.50
68588;BMP180;55560;52.174;20.996;2022-11-15T01:52:07;100800.60;;;7.50
68588;BMP180;55560;52.174;20.996;2022-11-15T01:55:08;100795.40;;;7.54
68588;BMP180;55560;52.174;20.996;2022-11-15T01:58:00;100790.20;;;7.60
68588;BMP180;55560;52.174;20.996;2022-11-15T02:00:48;100789.80;;;7.50
68588;BMP180;55560;52.174;20.996;2022-11-15T02:06:16;100776.20;;;7.60
68588;BMP180;55560;52.174;20.996;2022-11-15T02:09:02;100780.20;;;7.60
68588;BMP180;55560;52.174;20.996;2022-11-15T02:11:49;100775.60;;;7.60
68588;BMP180;55560;52.174;20.996;2022-11-15T02:14:42;100766.00;;;7.50
68588;BMP180;55560;52.174;20.996;2022-11-15T02:21:03;100767.40;;;7.40
68588;BMP180;55560;52.174;20.996;2022-11-15T02:27:44;100768.20;;;7.38
68588;BMP180;55560;52.174;20.996;2022-11-15T02:34:28;100759.80;;;7.50
68588;BMP180;55560;52.174;20.996;2022-11-15T02:43:39;100749.20;;;7.40
68588;BMP180;55560;52.174;20.996;2022-11-15T02:47:12;100746.40;;;7.40
68588;BMP180;55560;52.174;20.996;2022-11-15T02:50:06;100744.00;;;7.30
68588;BMP180;55560;52.174;20.996;2022-11-15T02:52:55;100741.40;;;7.30
68588;BMP180;55560;52.174;20.996;2022-11-15T02:55:46;100739.60;;;7.30
68588;BMP180;55560;52.174;20.996;2022-11-15T02:58:57;100732.40;;;7.30
68588;BMP180;55560;52.174;20.996;2022-11-15T03:08:04;100725.80;;;7.20
68588;BMP180;55560;52.174;20.996;2022-11-15T03:11:15;100715.00;;;7.20
68588;BMP180;55560;52.174;20.996;2022-11-15T03:14:30;100718.20;;;7.20
68588;BMP180;55560;52.174;20.996;2022-11-15T03:17:53;100715.60;;;7.16
68588;BMP180;55560;52.174;20.996;2022-11-15T03:20:42;100703.40;;;7.20
68588;BMP180;55560;52.174;20.996;2022-11-15T03:23:30;100707.40;;;7.20
68588;BMP180;55560;52.174;20.996;2022-11-15T03:26:21;100703.80;;;7.20
68588;BMP180;55560;52.174;20.996;2022-11-15T03:29:20;100694.60;;;7.30
68588;BMP180;55560;52.174;20.996;2022-11-15T03:32:17;100693.00;;;7.30
68588;BMP180;55560;52.174;20.996;2022-11-15T03:35:13;100683.20;;;7.30
68588;BMP180;55560;52.174;20.996;2022-11-15T03:38:19;100681.40;;;7.32
68588;BMP180;55560;52.174;20.996;2022-11-15T03:41:16;100682.60;;;7.30
68588;BMP180;55560;52.174;20.996;2022-11-15T03:47:41;100676.20;;;7.30
68588;BMP180;55560;52.174;20.996;2022-11-15T03:50:30;100667.60;;;7.30
68588;BMP180;55560;52.174;20.996;2022-11-15T03:53:17;100665.40;;;7.30
68588;BMP180;55560;52.174;20.996;2022-11-15T03:56:04;100667.40;;;7.30
68588;BMP180;55560;52.174;20.996;2022-11-15T03:58:50;100665.20;;;7.30
68588;BMP180;55560;52.174;20.996;2022-11-15T04:01:37;100660.40;;;7.30
68588;BMP180;55560;52.174;20.996;2022-11-15T04:04:23;100658.40;;;7.30
68588;BMP180;55560;52.174;20.996;2022-11-15T04:07:10;100657.00;;;7.30
68588;BMP180;55560;52.174;20.996;2022-11-15T04:09:57;100649.80;;;7.40
68588;BMP180;55560;52.174;20.996;2022-11-15T04:12:49;100639.60;;;7.40
68588;BMP180;55560;52.174;20.996;2022-11-15T04:15:36;100641.80;;;7.40
68588;BMP180;55560;52.174;20.996;2022-11-15T04:18:22;100640.20;;;7.40
68588;BMP180;55560;52.174;20.996;2022-11-15T04:21:10;100639.60;;;7.38
68588;BMP180;55560;52.174;20.996;2022-11-15T04:24:15;100636.20;;;7.30
68588;BMP180;55560;52.174;20.996;2022-11-15T04:27:02;100632.20;;;7.30
68588;BMP180;55560;52.174;20.996;2022-11-15T04:29:48;100634.00;;;7.40
68588;BMP180;55560;52.174;20.996;2022-11-15T04:32:34;100635.20;;;7.40
68588;BMP180;55560;52.174;20.996;2022-11-15T04:35:21;100628.00;;;7.40
68588;BMP180;55560;52.174;20.996;2022-11-15T04:38:09;100630.60;;;7.38
68588;BMP180;55560;52.174;20.996;2022-11-15T04:40:56;100626.60;;;7.40
68588;BMP180;55560;52.174;20.996;2022-11-15T04:43:42;100630.40;;;7.40
68588;BMP180;55560;52.174;20.996;2022-11-15T04:46:28;100628.40;;;7.40
68588;BMP180;55560;52.174;20.996;2022-11-15T04:49:15;100627.40;;;7.40
68588;BMP180;55560;52.174;20.996;2022-11-15T04:52:01;100623.80;;;7.40
68588;BMP180;55560;52.174;20.996;2022-11-15T04:54:48;100626.00;;;7.40
68588;BMP180;55560;52.174;20.996;2022-11-15T04:57:34;100621.00;;;7.40
68588;BMP180;55560;52.174;20.996;2022-11-15T05:00:21;100625.00;;;7.30
68588;BMP180;55560;52.174;20.996;2022-11-15T05:03:09;100618.60;;;7.30
68588;BMP180;55560;52.174;20.996;2022-11-15T05:06:15;100616.20;;;7.32
68588;BMP180;55560;52.174;20.996;2022-11-15T05:09:02;100622.00;;;7.30
68588;BMP180;55560;52.174;20.996;2022-11-15T05:11:49;100620.00;;;7.30
68588;BMP180;55560;52.174;20.996;2022-11-15T05:14:36;100612.40;;;7.30
68588;BMP180;55560;52.174;20.996;2022-11-15T05:17:23;100613.40;;;7.28
68588;BMP180;55560;52.174;20.996;2022-11-15T05:20:10;100607.60;;;7.28
68588;BMP180;55560;52.174;20.996;2022-11-15T05:22:57;100600.80;;;7.30
68588;BMP180;55560;52.174;20.996;2022-11-15T05:25:44;100606.00;;;7.26
68588;BMP180;55560;52.174;20.996;2022-11-15T05:28:32;100607.40;;;7.26
68588;BMP180;55560;52.174;20.996;2022-11-15T05:31:18;100605.00;;;7.28
68588;BMP180;55560;52.174;20.996;2022-11-15T05:34:05;100606.00;;;7.30
68588;BMP180;55560;52.174;20.996;2022-11-15T05:36:52;100607.00;;;7.30
68588;BMP180;55560;52.174;20.996;2022-11-15T05:39:39;100603.60;;;7.30
68588;BMP180;55560;52.174;20.996;2022-11-15T05:42:26;100606.60;;;7.30
68588;BMP180;55560;52.174;20.996;2022-11-15T05:45:13;100606.00;;;7.30
68588;BMP180;55560;52.174;20.996;2022-11-15T05:48:01;100603.40;;;7.30
68588;BMP180;55560;52.174;20.996;2022-11-15T05:50:48;100599.20;;;7.30
68588;BMP180;55560;52.174;20.996;2022-11-15T05:53:36;100598.00;;;7.30
68588;BMP180;55560;52.174;20.996;2022-11-15T05:56:23;100593.60;;;7.30
68588;BMP180;55560;52.174;20.996;2022-11-15T05:59:10;100592.00;;;7.30
68588;BMP180;55560;52.174;20.996;2022-11-15T06:01:57;100587.80;;;7.30
68588;BMP180;55560;52.174;20.996;2022-11-15T06:04:44;100591.00;;;7.30
68588;BMP180;55560;52.174;20.996;2022-11-15T06:07:30;100594.00;;;7.30
68588;BMP180;55560;52.174;20.996;2022-11-15T06:10:17;100598.80;;;7.30
68588;BMP180;55560;52.174;20.996;2022-11-15T06:13:05;100599.40;;;7.32
68588;BMP180;55560;52.174;20.996;2022-11-15T06:15:55;100600.00;;;7.30
68588;BMP180;55560;52.174;20.996;2022-11-15T06:18:41;100597.60;;;7.30
68588;BMP180;55560;52.174;20.996;2022-11-15T06:21:28;100598.80;;;7.30
68588;BMP180;55560;52.174;20.996;2022-11-15T06:24:15;100597.00;;;7.28
68588;BMP180;55560;52.174;20.996;2022-11-15T06:27:01;100603.00;;;7.30
68588;BMP180;55560;52.174;20.996;2022-11-15T06:29:48;100605.80;;;7.30
68588;BMP180;55560;52.174;20.996;2022-11-15T06:32:34;100602.40;;;7.20
68588;BMP180;55560;52.174;20.996;2022-11-15T06:35:20;100601.40;;;7.20
68588;BMP180;55560;52.174;20.996;2022-11-15T06:38:10;100600.00;;;7.22
68588;BMP180;55560;52.174;20.996;2022-11-15T06:41:08;100607.00;;;7.20
68588;BMP180;55560;52.174;20.996;2022-11-15T06:43:56;100605.80;;;7.30
68588;BMP180;55560;52.174;20.996;2022-11-15T06:46:43;100612.60;;;7.30
68588;BMP180;55560;52.174;20.996;2022-11-15T06:49:29;100612.20;;;7.30
68588;BMP180;55560;52.174;20.996;2022-11-15T06:52:16;100608.60;;;7.30
68588;BMP180;55560;52.174;20.996;2022-11-15T06:55:05;100608.60;;;7.30
68588;BMP180;55560;52.174;20.996;2022-11-15T06:57:52;100607.60;;;7.30
68588;BMP180;55560;52.174;20.996;2022-11-15T07:00:39;100614.80;;;7.30
68588;BMP180;55560;52.174;20.996;2022-11-15T07:03:26;100613.60;;;7.28
68588;BMP180;55560;52.174;20.996;2022-11-15T07:06:13;100616.20;;;7.20
68588;BMP180;55560;52.174;20.996;2022-11-15T07:09:02;100615.00;;;7.20
68588;BMP180;55560;52.174;20.996;2022-11-15T07:11:48;100614.40;;;7.20
68588;BMP180;55560;52.174;20.996;2022-11-15T07:14:35;100610.00;;;7.22
68588;BMP180;55560;52.174;20.996;2022-11-15T07:17:21;100613.00;;;7.22
68588;BMP180;55560;52.174;20.996;2022-11-15T07:20:09;100612.40;;;7.20
68588;BMP180;55560;52.174;20.996;2022-11-15T07:23:00;100614.80;;;7.20
68588;BMP180;55560;52.174;20.996;2022-11-15T07:25:48;100616.40;;;7.20
68588;BMP180;55560;52.174;20.996;2022-11-15T07:28:35;100614.80;;;7.10
68588;BMP180;55560;52.174;20.996;2022-11-15T07:31:22;100613.40;;;7.16
68588;BMP180;55560;52.174;20.996;2022-11-15T07:34:08;100613.20;;;7.14
68588;BMP180;55560;52.174;20.996;2022-11-15T07:36:56;100614.60;;;7.20
68588;BMP180;55560;52.174;20.996;2022-11-15T07:39:43;100613.80;;;7.20
68588;BMP180;55560;52.174;20.996;2022-11-15T07:42:33;100613.60;;;7.20
68588;BMP180;55560;52.174;20.996;2022-11-15T07:45:45;100613.80;;;7.20
68588;BMP180;55560;52.174;20.996;2022-11-15T07:48:31;100603.20;;;7.10
68588;BMP180;55560;52.174;20.996;2022-11-15T07:51:29;100601.40;;;7.10
68588;BMP180;55560;52.174;20.996;2022-11-15T07:54:16;100598.40;;;7.10
68588;BMP180;55560;52.174;20.996;2022-11-15T07:57:03;100597.00;;;7.10
68588;BMP180;55560;52.174;20.996;2022-11-15T07:59:53;100584.00;;;7.10
68588;BMP180;55560;52.174;20.996;2022-11-15T08:02:40;100583.60;;;7.02
68588;BMP180;55560;52.174;20.996;2022-11-15T08:05:28;100583.80;;;7.00
68588;BMP180;55560;52.174;20.996;2022-11-15T08:08:14;100575.40;;;7.00
68588;BMP180;55560;52.174;20.996;2022-11-15T08:11:01;100567.20;;;7.00
68588;BMP180;55560;52.174;20.996;2022-11-15T08:13:48;100568.60;;;7.10
68588;BMP180;55560;52.174;20.996;2022-11-15T08:16:34;100566.40;;;7.20
68588;BMP180;55560;52.174;20.996;2022-11-15T08:19:21;100557.60;;;7.10
68588;BMP180;55560;52.174;20.996;2022-11-15T08:22:07;100557.20;;;7.20
68588;BMP180;55560;52.174;20.996;2022-11-15T08:24:54;100555.60;;;7.26
68588;BMP180;55560;52.174;20.996;2022-11-15T08:27:41;100554.20;;;7.30
68588;BMP180;55560;52.174;20.996;2022-11-15T08:30:28;100554.40;;;7.30
68588;BMP180;55560;52.174;20.996;2022-11-15T08:33:15;100547.40;;;7.30
68588;BMP180;55560;52.174;20.996;2022-11-15T08:36:02;100551.00;;;7.30
68588;BMP180;55560;52.174;20.996;2022-11-15T08:38:48;100547.80;;;7.30
68588;BMP180;55560;52.174;20.996;2022-11-15T08:41:37;100546.40;;;7.30
68588;BMP180;55560;52.174;20.996;2022-11-15T08:44:23;100540.80;;;7.30
68588;BMP180;55560;52.174;20.996;2022-11-15T08:47:11;100537.20;;;7.32
68588;BMP180;55560;52.174;20.996;2022-11-15T08:49:58;100538.60;;;7.30
68588;BMP180;55560;52.174;20.996;2022-11-15T08:52:44;100539.20;;;7.30
68588;BMP180;55560;52.174;20.996;2022-11-15T08:55:31;100545.80;;;7.30
68588;BMP180;55560;52.174;20.996;2022-11-15T08:58:18;100546.80;;;7.34
68588;BMP180;55560;52.174;20.996;2022-11-15T09:01:05;100550.60;;;7.40
68588;BMP180;55560;52.174;20.996;2022-11-15T09:03:52;100545.00;;;7.40
68588;BMP180;55560;52.174;20.996;2022-11-15T09:06:39;100540.20;;;7.46
68588;BMP180;55560;52.174;20.996;2022-11-15T09:09:28;100539.00;;;7.50
68588;BMP180;55560;52.174;20.996;2022-11-15T09:12:14;100537.00;;;7.50
68588;BMP180;55560;52.174;20.996;2022-11-15T09:15:01;100528.60;;;7.50
68588;BMP180;55560;52.174;20.996;2022-11-15T09:17:47;100523.20;;;7.60
68588;BMP180;55560;52.174;20.996;2022-11-15T09:20:34;100528.80;;;7.60
68588;BMP180;55560;52.174;20.996;2022-11-15T09:23:20;100519.20;;;7.60
68588;BMP180;55560;52.174;20.996;2022-11-15T09:26:07;100514.20;;;7.60
68588;BMP180;55560;52.174;20.996;2022-11-15T09:28:53;100509.00;;;7.64
68588;BMP180;55560;52.174;20.996;2022-11-15T09:31:39;100511.80;;;7.70
68588;BMP180;55560;52.174;20.996;2022-11-15T09:34:26;100511.20;;;7.70
68588;BMP180;55560;52.174;20.996;2022-11-15T09:37:12;100513.40;;;7.70
68588;BMP180;55560;52.174;20.996;2022-11-15T09:39:58;100512.20;;;7.70
68588;BMP180;55560;52.174;20.996;2022-11-15T09:42:58;100508.00;;;7.70
68588;BMP180;55560;52.174;20.996;2022-11-15T09:46:22;100502.80;;;7.80
68588;BMP180;55560;52.174;20.996;2022-11-15T09:49:14;100491.40;;;7.80
68588;BMP180;55560;52.174;20.996;2022-11-15T09:52:07;100489.20;;;7.82
68588;BMP180;55560;52.174;20.996;2022-11-15T09:54:39;100485.20;;;7.80
68588;BMP180;55560;52.174;20.996;2022-11-15T09:57:47;100484.00;;;7.80
68588;BMP180;55560;52.174;20.996;2022-11-15T10:00:33;100482.80;;;7.80
68588;BMP180;55560;52.174;20.996;2022-11-15T10:03:29;100476.80;;;7.90
68588;BMP180;55560;52.174;20.996;2022-11-15T10:06:01;100472.80;;;7.90
68588;BMP180;55560;52.174;20.996;2022-11-15T10:08:31;100468.60;;;7.90
68588;BMP180;55560;52.174;20.996;2022-11-15T10:11:19;100469.20;;;7.90
68588;BMP180;55560;52.174;20.996;2022-11-15T10:14:22;100465.60;;;7.90
68588;BMP180;55560;52.174;20.996;2022-11-15T10:17:09;100471.20;;;7.92
68588;BMP180;55560;52.174;20.996;2022-11-15T10:22:59;100464.20;;;7.94
68588;BMP180;55560;52.174;20.996;2022-11-15T10:25:31;100461.20;;;8.00
68588;BMP180;55560;52.174;20.996;2022-11-15T10:28:26;100457.20;;;8.00
68588;BMP180;55560;52.174;20.996;2022-11-15T10:31:00;100460.00;;;8.00
68588;BMP180;55560;52.174;20.996;2022-11-15T10:33:39;100459.60;;;8.10
68588;BMP180;55560;52.174;20.996;2022-11-15T10:46:37;100444.60;;;8.10
68588;BMP180;55560;52.174;20.996;2022-11-15T10:52:12;100444.20;;;8.10
68588;BMP180;55560;52.174;20.996;2022-11-15T10:54:52;100439.60;;;8.10
68588;BMP180;55560;52.174;20.996;2022-11-15T10:57:24;100437.00;;;8.20
68588;BMP180;55560;52.174;20.996;2022-11-15T11:03:04;100430.00;;;8.28
68588;BMP180;55560;52.174;20.996;2022-11-15T11:05:38;100420.40;;;8.26
68588;BMP180;55560;52.174;20.996;2022-11-15T11:10:53;100420.60;;;8.20
68588;BMP180;55560;52.174;20.996;2022-11-15T11:13:38;100421.20;;;8.20
68588;BMP180;55560;52.174;20.996;2022-11-15T11:16:26;100415.40;;;8.30
68588;BMP180;55560;52.174;20.996;2022-11-15T11:19:15;100416.20;;;8.30
68588;BMP180;55560;52.174;20.996;2022-11-15T11:28:04;100418.00;;;8.30
68588;BMP180;55560;52.174;20.996;2022-11-15T11:31:30;100409.60;;;8.40
68588;BMP180;55560;52.174;20.996;2022-11-15T11:34:15;100411.00;;;8.40
68588;BMP180;55560;52.174;20.996;2022-11-15T11:37:17;100405.80;;;8.40
68588;BMP180;55560;52.174;20.996;2022-11-15T11:40:20;100394.60;;;8.40
68588;BMP180;55560;52.174;20.996;2022-11-15T11:48:47;100383.80;;;8.40
68588;BMP180;55560;52.174;20.996;2022-11-15T11:51:27;100381.00;;;8.46
68588;BMP180;55560;52.174;20.996;2022-11-15T11:54:09;100375.40;;;8.46
68588;BMP180;55560;52.174;20.996;2022-11-15T11:56:43;100370.60;;;8.50
68588;BMP180;55560;52.174;20.996;2022-11-15T11:59:44;100369.00;;;8.50
68588;BMP180;55560;52.174;20.996;2022-11-15T12:02:31;100365.00;;;8.40
68588;BMP180;55560;52.174;20.996;2022-11-15T12:05:30;100364.80;;;8.40
68588;BMP180;55560;52.174;20.996;2022-11-15T12:08:23;100355.00;;;8.40
68588;BMP180;55560;52.174;20.996;2022-11-15T12:11:03;100355.20;;;8.40
68588;BMP180;55560;52.174;20.996;2022-11-15T12:13:33;100358.40;;;8.40
68588;BMP180;55560;52.174;20.996;2022-11-15T12:16:23;100351.80;;;8.48
68588;BMP180;55560;52.174;20.996;2022-11-15T12:18:54;100353.60;;;8.50
68588;BMP180;55560;52.174;20.996;2022-11-15T12:21:37;100352.00;;;8.50
68588;BMP180;55560;52.174;20.996;2022-11-15T12:24:27;100349.00;;;8.50
68588;BMP180;55560;52.174;20.996;2022-11-15T12:27:06;100344.60;;;8.50
68588;BMP180;55560;52.174;20.996;2022-11-15T12:29:50;100344.20;;;8.50
68588;BMP180;55560;52.174;20.996;2022-11-15T12:32:33;100347.00;;;8.60
68588;BMP180;55560;52.174;20.996;2022-11-15T12:35:05;100339.00;;;8.60
68588;BMP180;55560;52.174;20.996;2022-11-15T12:40:28;100330.40;;;8.60
68588;BMP180;55560;52.174;20.996;2022-11-15T12:45:45;100330.00;;;8.60
68588;BMP180;55560;52.174;20.996;2022-11-15T12:58:57;100313.80;;;8.70
68588;BMP180;55560;52.174;20.996;2022-11-15T13:01:52;100313.40;;;8.78
68588;BMP180;55560;52.174;20.996;2022-11-15T13:07:05;100311.60;;;8.80
68588;BMP180;55560;52.174;20.996;2022-11-15T13:14:59;100314.60;;;8.80
68588;BMP180;55560;52.174;20.996;2022-11-15T13:17:43;100311.00;;;8.80
68588;BMP180;55560;52.174;20.996;2022-11-15T13:22:46;100307.80;;;8.88
68588;BMP180;55560;52.174;20.996;2022-11-15T13:28:45;100297.00;;;8.80
68588;BMP180;55560;52.174;20.996;2022-11-15T13:31:41;100299.80;;;8.76
68588;BMP180;55560;52.174;20.996;2022-11-15T13:39:49;100292.40;;;8.70
68588;BMP180;55560;52.174;20.996;2022-11-15T13:42:20;100286.60;;;8.70
68588;BMP180;55560;52.174;20.996;2022-11-15T13:44:58;100282.20;;;8.70
68588;BMP180;55560;52.174;20.996;2022-11-15T13:47:28;100286.00;;;8.70
68588;BMP180;55560;52.174;20.996;2022-11-15T13:49:58;100283.80;;;8.70
68588;BMP180;55560;52.174;20.996;2022-11-15T13:52:34;100277.60;;;8.70
68588;BMP180;55560;52.174;20.996;2022-11-15T13:55:13;100277.60;;;8.70
68588;BMP180;55560;52.174;20.996;2022-11-15T13:58:09;100279.60;;;8.60
68588;BMP180;55560;52.174;20.996;2022-11-15T14:00:44;100284.60;;;8.60
68588;BMP180;55560;52.174;20.996;2022-11-15T14:03:21;100281.20;;;8.60
68588;BMP180;55560;52.174;20.996;2022-11-15T14:06:11;100280.80;;;8.60
68588;BMP180;55560;52.174;20.996;2022-11-15T14:08:40;100276.80;;;8.60
68588;BMP180;55560;52.174;20.996;2022-11-15T14:11:16;100282.60;;;8.60
68588;BMP180;55560;52.174;20.996;2022-11-15T14:16:45;100276.60;;;8.50
68588;BMP180;55560;52.174;20.996;2022-11-15T14:22:25;100273.40;;;8.50
68588;BMP180;55560;52.174;20.996;2022-11-15T14:27:44;100266.20;;;8.40
68588;BMP180;55560;52.174;20.996;2022-11-15T14:30:15;100258.20;;;8.40
68588;BMP180;55560;52.174;20.996;2022-11-15T14:32:50;100257.20;;;8.42
68588;BMP180;55560;52.174;20.996;2022-11-15T14:35:22;100254.00;;;8.40
68588;BMP180;55560;52.174;20.996;2022-11-15T14:37:50;100254.60;;;8.40
68588;BMP180;55560;52.174;20.996;2022-11-15T14:40:21;100251.60;;;8.40
68588;BMP180;55560;52.174;20.996;2022-11-15T14:42:49;100249.40;;;8.40
68588;BMP180;55560;52.174;20.996;2022-11-15T14:45:20;100252.40;;;8.40
68588;BMP180;55560;52.174;20.996;2022-11-15T14:47:48;100257.60;;;8.40
68588;BMP180;55560;52.174;20.996;2022-11-15T14:50:20;100254.00;;;8.40
68588;BMP180;55560;52.174;20.996;2022-11-15T14:52:48;100254.00;;;8.40
68588;BMP180;55560;52.174;20.996;2022-11-15T14:55:21;100261.00;;;8.40
68588;BMP180;55560;52.174;20.996;2022-11-15T14:57:51;100264.40;;;8.40
68588;BMP180;55560;52.174;20.996;2022-11-15T15:00:20;100264.20;;;8.40
68588;BMP180;55560;52.174;20.996;2022-11-15T15:02:49;100261.00;;;8.30
68588;BMP180;55560;52.174;20.996;2022-11-15T15:05:35;100256.20;;;8.30
68588;BMP180;55560;52.174;20.996;2022-11-15T15:08:05;100249.20;;;8.30
68588;BMP180;55560;52.174;20.996;2022-11-15T15:10:40;100253.20;;;8.30
68588;BMP180;55560;52.174;20.996;2022-11-15T15:13:21;100248.20;;;8.30
68588;BMP180;55560;52.174;20.996;2022-11-15T15:15:51;100242.00;;;8.30
68588;BMP180;55560;52.174;20.996;2022-11-15T15:18:19;100237.60;;;8.30
68588;BMP180;55560;52.174;20.996;2022-11-15T15:20:59;100242.80;;;8.30
68588;BMP180;55560;52.174;20.996;2022-11-15T15:23:34;100238.60;;;8.30
68588;BMP180;55560;52.174;20.996;2022-11-15T15:26:03;100241.00;;;8.30
68588;BMP180;55560;52.174;20.996;2022-11-15T15:28:32;100241.40;;;8.22
68588;BMP180;55560;52.174;20.996;2022-11-15T15:31:02;100242.80;;;8.20
68588;BMP180;55560;52.174;20.996;2022-11-15T15:33:31;100236.60;;;8.20
68588;BMP180;55560;52.174;20.996;2022-11-15T15:35:59;100240.80;;;8.20
68588;BMP180;55560;52.174;20.996;2022-11-15T15:38:27;100240.80;;;8.20
68588;BMP180;55560;52.174;20.996;2022-11-15T15:40:55;100238.60;;;8.20
68588;BMP180;55560;52.174;20.996;2022-11-15T15:43:23;100236.20;;;8.22
68588;BMP180;55560;52.174;20.996;2022-11-15T15:45:50;100241.00;;;8.30
68588;BMP180;55560;52.174;20.996;2022-11-15T15:48:18;100239.00;;;8.26
68588;BMP180;55560;52.174;20.996;2022-11-15T15:50:47;100241.00;;;8.24
68588;BMP180;55560;52.174;20.996;2022-11-15T15:53:16;100238.60;;;8.20
68588;BMP180;55560;52.174;20.996;2022-11-15T15:55:45;100234.80;;;8.20
68588;BMP180;55560;52.174;20.996;2022-11-15T15:58:12;100227.00;;;8.20
68588;BMP180;55560;52.174;20.996;2022-11-15T16:00:40;100220.20;;;8.20
68588;BMP180;55560;52.174;20.996;2022-11-15T16:03:08;100224.60;;;8.20
68588;BMP180;55560;52.174;20.996;2022-11-15T16:05:36;100213.60;;;8.12
68588;BMP180;55560;52.174;20.996;2022-11-15T16:08:05;100215.80;;;8.10
68588;BMP180;55560;52.174;20.996;2022-11-15T16:10:33;100213.20;;;8.10
68588;BMP180;55560;52.174;20.996;2022-11-15T16:13:02;100214.20;;;8.10
68588;BMP180;55560;52.174;20.996;2022-11-15T16:15:31;100214.60;;;8.10
68588;BMP180;55560;52.174;20.996;2022-11-15T16:18:00;100216.80;;;8.10
68588;BMP180;55560;52.174;20.996;2022-11-15T16:20:40;100216.20;;;8.10
68588;BMP180;55560;52.174;20.996;2022-11-15T16:23:16;100218.20;;;8.10
68588;BMP180;55560;52.174;20.996;2022-11-15T16:25:50;100212.40;;;8.10
68588;BMP180;55560;52.174;20.996;2022-11-15T16:28:24;100215.40;;;8.10
68588;BMP180;55560;52.174;20.996;2022-11-15T16:31:09;100214.40;;;8.10
68588;BMP180;55560;52.174;20.996;2022-11-15T16:33:38;100213.00;;;8.10
68588;BMP180;55560;52.174;20.996;2022-11-15T16:36:22;100217.60;;;8.10
68588;BMP180;55560;52.174;20.996;2022-11-15T16:38:58;100212.60;;;8.10
68588;BMP180;55560;52.174;20.996;2022-11-15T16:41:26;100214.80;;;8.10
68588;BMP180;55560;52.174;20.996;2022-11-15T16:43:54;100213.60;;;8.10
68588;BMP180;55560;52.174;20.996;2022-11-15T16:46:26;100219.00;;;8.08
68588;BMP180;55560;52.174;20.996;2022-11-15T16:48:55;100223.00;;;8.00
68588;BMP180;55560;52.174;20.996;2022-11-15T16:51:23;100224.60;;;8.00
68588;BMP180;55560;52.174;20.996;2022-11-15T16:53:51;100225.40;;;8.00
68588;BMP180;55560;52.174;20.996;2022-11-15T16:56:30;100232.40;;;8.00
68588;BMP180;55560;52.174;20.996;2022-11-15T16:59:00;100226.40;;;8.00
68588;BMP180;55560;52.174;20.996;2022-11-15T17:01:33;100224.60;;;7.98
68588;BMP180;55560;52.174;20.996;2022-11-15T17:04:02;100220.20;;;7.92
68588;BMP180;55560;52.174;20.996;2022-11-15T17:06:41;100222.40;;;7.90
68588;BMP180;55560;52.174;20.996;2022-11-15T17:09:20;100223.20;;;7.80
68588;BMP180;55560;52.174;20.996;2022-11-15T17:11:52;100217.40;;;7.80
68588;BMP180;55560;52.174;20.996;2022-11-15T17:14:20;100221.80;;;7.80
68588;BMP180;55560;52.174;20.996;2022-11-15T17:16:48;100217.20;;;7.70
68588;BMP180;55560;52.174;20.996;2022-11-15T17:19:19;100215.40;;;7.70
68588;BMP180;55560;52.174;20.996;2022-11-15T17:21:47;100213.60;;;7.70